createdAt,value
2017-10-28T00:01:38.346Z,82.86
2017-10-28T00:04:06.677Z,83.19
2017-10-28T00:06:35.002Z,83.05
2017-10-28T00:09:03.335Z,83.38
2017-10-28T00:11:31.639Z,83.23
2017-10-28T00:13:59.959Z,83.24
2017-10-28T00:16:28.261Z,82.98
2017-10-28T00:18:56.586Z,82.84
2017-10-28T00:21:24.897Z,82.99
2017-10-28T00:23:53.994Z,82.90
2017-10-28T00:26:23.091Z,82.58
2017-10-28T00:28:52.171Z,82.77
2017-10-28T00:31:26.841Z,83.08
2017-10-28T00:36:56.114Z,83.21
2017-10-28T00:39:24.459Z,83.28
2017-10-28T00:41:52.838Z,83.52
2017-10-28T00:44:21.233Z,83.78
2017-10-28T00:46:49.543Z,83.37
2017-10-28T00:49:18.654Z,83.51
2017-10-28T00:51:47.762Z,83.30
2017-10-28T00:54:16.134Z,82.81
2017-10-28T00:56:44.519Z,82.72
2017-10-28T00:59:12.855Z,82.47
2017-10-28T01:01:41.211Z,82.41
2017-10-28T01:04:10.326Z,82.35
2017-10-28T01:06:38.683Z,82.90
2017-10-28T01:09:07.033Z,82.36
2017-10-28T01:11:35.422Z,82.31
2017-10-28T01:14:03.791Z,82.23
2017-10-28T01:16:32.108Z,82.05
2017-10-28T01:19:00.494Z,82.02
2017-10-28T01:21:28.864Z,82.32
2017-10-28T01:23:57.214Z,82.42
2017-10-28T01:26:25.570Z,82.31
2017-10-28T01:28:53.967Z,82.65
2017-10-28T01:31:22.340Z,82.96
2017-10-28T01:33:50.730Z,83.00
2017-10-28T01:36:19.041Z,83.21
2017-10-28T01:38:47.418Z,83.00
2017-10-28T01:41:15.778Z,83.01
2017-10-28T01:43:44.175Z,82.97
2017-10-28T01:46:12.510Z,83.07
2017-10-28T01:48:40.875Z,83.06
2017-10-28T01:51:09.183Z,82.98
2017-10-28T01:53:37.564Z,83.07
2017-10-28T01:56:05.873Z,82.71
2017-10-28T01:58:34.203Z,82.56
2017-10-28T02:01:02.519Z,82.05
2017-10-28T02:03:30.875Z,81.88
2017-10-28T02:05:59.184Z,81.63
2017-10-28T02:08:27.561Z,81.70
2017-10-28T02:10:55.886Z,81.81
2017-10-28T02:13:24.215Z,81.58
2017-10-28T02:15:52.517Z,81.57
2017-10-28T02:18:21.594Z,81.34
2017-10-28T02:20:49.900Z,81.33
2017-10-28T02:23:18.223Z,81.71
2017-10-28T02:25:47.301Z,81.63
2017-10-28T02:28:15.622Z,81.77
2017-10-28T02:30:43.935Z,81.97
2017-10-28T02:33:12.268Z,82.22
2017-10-28T02:35:40.580Z,82.79
2017-10-28T02:38:09.717Z,82.91
2017-10-28T02:40:38.071Z,83.00
2017-10-28T02:43:06.462Z,83.13
2017-10-28T02:45:34.771Z,83.03
2017-10-28T02:48:03.120Z,83.10
2017-10-28T02:50:31.464Z,84.13
2017-10-28T02:53:00.581Z,84.37
2017-10-28T02:55:28.959Z,84.19
2017-10-28T02:57:57.283Z,84.53
2017-10-28T03:00:25.634Z,84.88
2017-10-28T03:02:53.997Z,85.70
2017-10-28T03:05:22.344Z,87.15
2017-10-28T03:07:51.454Z,88.60
2017-10-28T03:10:19.803Z,89.88
2017-10-28T03:12:48.189Z,89.93
2017-10-28T03:15:16.506Z,90.65
2017-10-28T03:17:44.835Z,90.82
2017-10-28T03:20:13.165Z,91.01
2017-10-28T03:22:41.559Z,90.02
2017-10-28T03:25:09.899Z,90.10
2017-10-28T03:27:38.968Z,89.47
2017-10-28T03:30:07.311Z,89.13
2017-10-28T03:32:35.611Z,88.86
2017-10-28T03:35:03.977Z,88.15
2017-10-28T03:37:32.281Z,87.40
2017-10-28T03:40:01.387Z,86.52
2017-10-28T03:42:30.476Z,86.17
2017-10-28T03:44:59.606Z,85.72
2017-10-28T03:47:27.920Z,85.48
2017-10-28T03:49:56.234Z,85.85
2017-10-28T03:52:25.336Z,85.02
2017-10-28T03:54:54.413Z,84.91
2017-10-28T03:57:22.697Z,84.66
2017-10-28T03:59:51.769Z,84.27
2017-10-28T04:02:20.150Z,84.35
2017-10-28T04:04:48.526Z,84.24
2017-10-28T04:07:16.904Z,84.21
2017-10-28T04:09:45.212Z,84.67
2017-10-28T04:12:14.329Z,85.24
2017-10-28T04:14:42.633Z,85.40
2017-10-28T04:17:10.936Z,85.48
2017-10-28T04:19:39.237Z,85.58
2017-10-28T04:22:08.289Z,85.52
2017-10-28T04:24:36.613Z,85.51
2017-10-28T04:27:05.669Z,86.33
2017-10-28T04:29:33.965Z,87.52
2017-10-28T04:32:02.255Z,88.56
2017-10-28T04:34:30.873Z,89.29
2017-10-28T04:36:59.169Z,89.13
2017-10-28T04:39:28.233Z,89.14
2017-10-28T04:41:56.523Z,89.21
2017-10-28T04:44:24.833Z,88.94
2017-10-28T04:46:53.132Z,89.00
2017-10-28T04:49:21.432Z,88.73
2017-10-28T04:51:49.719Z,88.30
2017-10-28T04:54:18.017Z,87.50
2017-10-28T04:56:46.306Z,87.07
2017-10-28T04:59:14.604Z,86.27
2017-10-28T05:01:42.892Z,86.24
2017-10-28T05:04:11.964Z,85.34
2017-10-28T05:06:40.270Z,85.05
2017-10-28T05:09:09.337Z,84.72
2017-10-28T05:11:37.653Z,84.25
2017-10-28T05:14:05.949Z,83.75
2017-10-28T05:16:34.257Z,83.52
2017-10-28T05:19:02.552Z,83.66
2017-10-28T05:21:30.854Z,83.13
2017-10-28T05:23:59.923Z,83.14
2017-10-28T05:26:28.240Z,83.16
2017-10-28T05:28:56.536Z,81.94
2017-10-28T05:31:24.834Z,82.08
2017-10-28T05:33:53.113Z,81.74
2017-10-28T05:36:21.411Z,81.79
2017-10-28T05:38:49.748Z,81.25
2017-10-28T05:41:18.041Z,81.14
2017-10-28T05:43:46.338Z,81.37
2017-10-28T05:46:14.649Z,81.11
2017-10-28T05:48:43.705Z,81.02
2017-10-28T05:51:12.034Z,80.56
2017-10-28T05:53:40.338Z,80.75
2017-10-28T05:56:08.630Z,80.05
2017-10-28T05:58:36.910Z,79.98
2017-10-28T06:01:05.220Z,79.40
2017-10-28T06:03:34.278Z,79.48
2017-10-28T06:06:02.572Z,79.09
2017-10-28T06:08:30.856Z,79.00
2017-10-28T06:10:59.190Z,78.99
2017-10-28T06:13:27.487Z,78.86
2017-10-28T06:15:55.802Z,78.36
2017-10-28T06:18:24.866Z,77.83
2017-10-28T06:20:53.228Z,77.65
2017-10-28T06:23:21.521Z,77.50
2017-10-28T06:25:49.963Z,77.19
2017-10-28T06:28:18.260Z,77.29
2017-10-28T06:30:46.566Z,77.19
2017-10-28T06:33:14.865Z,78.02
2017-10-28T06:35:43.942Z,76.65
2017-10-28T06:38:12.236Z,76.27
2017-10-28T06:40:41.309Z,76.33
2017-10-28T06:43:09.599Z,76.23
2017-10-28T06:45:38.721Z,76.09
2017-10-28T06:48:07.769Z,76.33
2017-10-28T06:50:36.094Z,75.12
2017-10-28T06:53:04.397Z,75.41
2017-10-28T06:55:32.730Z,75.01
2017-10-28T06:58:01.795Z,75.21
2017-10-28T07:00:30.090Z,74.96
2017-10-28T07:02:58.389Z,75.26
2017-10-28T07:05:28.012Z,75.20
2017-10-28T07:07:56.320Z,75.21
2017-10-28T07:10:24.618Z,75.17
2017-10-28T07:12:52.925Z,74.33
2017-10-28T07:15:21.989Z,75.08
2017-10-28T07:17:50.295Z,74.49
2017-10-28T07:20:19.357Z,75.13
2017-10-28T07:22:47.671Z,75.07
2017-10-28T07:25:16.729Z,74.82
2017-10-28T07:27:45.037Z,74.98
2017-10-28T07:30:14.101Z,75.34
2017-10-28T07:32:42.414Z,75.39
2017-10-28T07:35:11.477Z,75.32
2017-10-28T07:37:39.792Z,75.63
2017-10-28T07:40:08.089Z,75.52
2017-10-28T07:42:36.395Z,74.94
2017-10-28T07:45:04.705Z,74.84
2017-10-28T07:47:33.778Z,74.71
2017-10-28T07:50:02.078Z,74.53
2017-10-28T07:52:31.161Z,74.37
2017-10-28T07:54:59.473Z,74.59
2017-10-28T07:57:27.781Z,74.18
2017-10-28T07:59:56.072Z,75.03
2017-10-28T08:02:24.389Z,74.43
2017-10-28T08:04:53.449Z,74.34
2017-10-28T08:07:21.756Z,74.24
2017-10-28T08:09:50.812Z,74.37
2017-10-28T08:12:19.124Z,74.37
2017-10-28T08:14:48.176Z,73.83
2017-10-28T08:17:16.472Z,74.22
2017-10-28T08:19:44.809Z,74.27
2017-10-28T08:22:13.117Z,74.17
2017-10-28T08:24:41.428Z,73.91
2017-10-28T08:27:10.490Z,73.52
2017-10-28T08:29:38.820Z,73.33
2017-10-28T08:32:07.129Z,74.29
2017-10-28T08:34:35.436Z,73.97
2017-10-28T08:37:03.747Z,73.61
2017-10-28T08:39:32.055Z,74.20
2017-10-28T08:42:00.358Z,74.55
2017-10-28T08:44:28.678Z,74.20
2017-10-28T08:46:56.985Z,73.79
2017-10-28T08:49:25.296Z,73.71
2017-10-28T08:51:53.613Z,73.92
2017-10-28T08:54:21.913Z,74.14
2017-10-28T08:56:50.211Z,73.84
2017-10-28T08:59:18.516Z,72.50
2017-10-28T09:01:46.814Z,71.97
2017-10-28T09:04:15.888Z,71.13
2017-10-28T09:06:44.186Z,71.10
2017-10-28T09:09:13.262Z,71.40
2017-10-28T09:11:41.578Z,71.46
2017-10-28T09:14:09.878Z,71.30
2017-10-28T09:16:38.950Z,71.56
2017-10-28T09:19:07.273Z,72.25
2017-10-28T09:21:35.580Z,72.16
2017-10-28T09:24:04.641Z,72.12
2017-10-28T09:26:32.953Z,72.05
2017-10-28T09:29:02.028Z,72.19
2017-10-28T09:31:30.338Z,71.92
2017-10-28T09:33:58.645Z,71.23
2017-10-28T09:36:26.949Z,71.90
2017-10-28T09:38:55.262Z,72.02
2017-10-28T09:41:24.338Z,71.42
2017-10-28T09:43:53.414Z,71.87
2017-10-28T09:46:21.733Z,71.28
2017-10-28T09:48:50.029Z,70.89
2017-10-28T09:51:18.342Z,71.27
2017-10-28T09:53:46.648Z,71.44
2017-10-28T09:56:15.721Z,71.38
2017-10-28T09:58:44.027Z,71.70
2017-10-28T10:01:13.109Z,71.32
2017-10-28T10:03:42.176Z,70.93
2017-10-28T10:06:10.490Z,70.89
2017-10-28T10:08:38.817Z,71.35
2017-10-28T10:11:07.126Z,70.48
2017-10-28T10:13:35.426Z,69.30
2017-10-28T10:16:04.504Z,69.43
2017-10-28T10:18:32.829Z,69.21
2017-10-28T10:21:01.145Z,69.14
2017-10-28T10:23:29.464Z,68.21
2017-10-28T10:25:57.765Z,67.53
2017-10-28T10:28:26.083Z,68.50
2017-10-28T10:30:54.405Z,68.59
2017-10-28T10:33:22.701Z,68.72
2017-10-28T10:35:51.010Z,69.14
2017-10-28T10:38:19.315Z,68.95
2017-10-28T10:40:48.401Z,69.34
2017-10-28T10:43:17.466Z,69.53
2017-10-28T10:45:45.773Z,69.72
2017-10-28T10:48:14.079Z,69.84
2017-10-28T10:50:42.385Z,69.70
2017-10-28T10:53:10.681Z,69.35
2017-10-28T10:55:38.993Z,69.97
2017-10-28T10:58:07.293Z,69.98
2017-10-28T11:00:35.608Z,70.63
2017-10-28T11:03:03.906Z,70.15
2017-10-28T11:05:32.217Z,70.45
2017-10-28T11:08:00.518Z,70.56
2017-10-28T11:10:28.836Z,70.06
2017-10-28T11:12:57.129Z,70.09
2017-10-28T11:15:26.202Z,70.02
2017-10-28T11:17:54.499Z,69.58
2017-10-28T11:20:23.637Z,68.81
2017-10-28T11:22:51.937Z,69.86
2017-10-28T11:25:21.082Z,69.56
2017-10-28T11:27:49.382Z,69.85
2017-10-28T11:30:17.685Z,69.78
2017-10-28T11:32:45.993Z,70.19
2017-10-28T11:35:14.293Z,70.28
2017-10-28T11:37:42.600Z,70.57
2017-10-28T11:40:10.894Z,70.66
2017-10-28T11:42:39.201Z,70.17
2017-10-28T11:45:07.508Z,70.37
2017-10-28T11:47:35.817Z,70.79
2017-10-28T11:50:04.123Z,70.92
2017-10-28T11:52:32.439Z,70.50
2017-10-28T11:55:00.782Z,70.65
2017-10-28T11:57:29.128Z,70.10
2017-10-28T11:59:57.476Z,69.55
2017-10-28T12:02:25.877Z,69.08
2017-10-28T12:04:54.265Z,69.67
2017-10-28T12:07:22.629Z,69.19
2017-10-28T12:09:50.978Z,69.41
2017-10-28T12:12:19.362Z,69.44
2017-10-28T12:14:47.730Z,69.17
2017-10-28T12:17:16.842Z,68.54
2017-10-28T12:19:45.150Z,68.33
2017-10-28T12:22:13.465Z,68.53
2017-10-28T12:24:42.618Z,68.83
2017-10-28T12:27:10.937Z,68.60
2017-10-28T12:29:39.240Z,68.23
2017-10-28T12:32:07.561Z,68.48
2017-10-28T12:34:35.915Z,68.00
2017-10-28T12:37:04.228Z,68.14
2017-10-28T12:39:32.534Z,67.49
2017-10-28T12:42:01.606Z,68.01
2017-10-28T12:44:30.006Z,68.15
2017-10-28T12:46:58.362Z,68.21
2017-10-28T12:49:26.697Z,67.72
2017-10-28T12:51:55.060Z,68.09
2017-10-28T12:54:23.380Z,68.05
2017-10-28T12:56:51.731Z,67.88
2017-10-28T12:59:20.126Z,67.73
2017-10-28T13:01:48.470Z,67.20
2017-10-28T13:04:16.836Z,67.88
2017-10-28T13:06:45.967Z,68.20
2017-10-28T13:09:14.286Z,68.25
2017-10-28T13:11:42.644Z,68.79
2017-10-28T13:14:10.982Z,68.36
2017-10-28T13:16:39.360Z,68.45
2017-10-28T13:19:07.697Z,68.45
2017-10-28T13:21:36.042Z,68.59
2017-10-28T13:24:04.426Z,68.30
2017-10-28T13:26:32.805Z,67.91
2017-10-28T13:29:01.184Z,67.97
2017-10-28T13:31:29.515Z,67.96
2017-10-28T13:33:58.584Z,68.28
2017-10-28T13:36:26.889Z,68.16
2017-10-28T13:38:55.986Z,67.80
2017-10-28T13:41:25.072Z,68.23
2017-10-28T13:43:54.390Z,68.29
2017-10-28T13:46:22.692Z,67.81
2017-10-28T13:48:51.041Z,68.03
2017-10-28T13:51:20.151Z,68.39
2017-10-28T13:53:48.513Z,68.28
2017-10-28T13:56:17.640Z,67.97
2017-10-28T13:58:45.949Z,68.52
2017-10-28T14:01:14.253Z,68.17
2017-10-28T14:03:43.389Z,68.43
2017-10-28T14:06:11.709Z,68.70
2017-10-28T14:08:40.034Z,68.33
2017-10-28T14:11:08.367Z,68.99
2017-10-28T14:13:36.687Z,69.08
2017-10-28T14:16:05.074Z,69.44
2017-10-28T14:18:34.666Z,69.11
2017-10-28T14:21:03.072Z,69.19
2017-10-28T14:23:31.449Z,69.30
2017-10-28T14:25:59.796Z,70.18
2017-10-28T14:28:28.156Z,69.97
2017-10-28T14:30:57.265Z,70.15
2017-10-28T14:33:25.616Z,70.30
2017-10-28T14:35:53.931Z,70.18
2017-10-28T14:38:22.251Z,70.15
2017-10-28T14:40:50.597Z,70.29
2017-10-28T14:43:18.913Z,70.19
2017-10-28T14:45:47.243Z,70.07
2017-10-28T14:48:15.569Z,70.29
2017-10-28T14:50:43.920Z,70.15
2017-10-28T14:53:12.279Z,70.48
2017-10-28T14:55:40.674Z,70.50
2017-10-28T14:58:09.019Z,70.46
2017-10-28T15:00:38.194Z,70.57
2017-10-28T15:03:06.569Z,70.66
2017-10-28T15:05:34.916Z,70.88
2017-10-28T15:08:03.274Z,70.94
2017-10-28T15:10:31.589Z,70.81
2017-10-28T15:12:59.926Z,71.25
2017-10-28T15:15:28.261Z,71.46
2017-10-28T15:17:56.621Z,71.44
2017-10-28T15:20:24.949Z,71.35
2017-10-28T15:22:54.038Z,71.22
2017-10-28T15:25:23.141Z,71.37
2017-10-28T15:27:51.484Z,71.30
2017-10-28T15:30:19.797Z,71.38
2017-10-28T15:32:48.135Z,71.40
2017-10-28T15:35:16.481Z,71.72
2017-10-28T15:37:44.793Z,71.71
2017-10-28T15:40:13.116Z,71.81
2017-10-28T15:42:41.438Z,72.05
2017-10-28T15:45:09.782Z,72.01
2017-10-28T15:47:38.080Z,72.35
2017-10-28T15:50:06.393Z,72.26
2017-10-28T15:52:34.700Z,72.54
2017-10-28T15:55:03.008Z,72.65
2017-10-28T15:57:31.362Z,72.64
2017-10-28T15:59:59.666Z,73.08
2017-10-28T16:02:28.038Z,74.18
2017-10-28T16:04:56.373Z,76.00
2017-10-28T16:07:25.488Z,77.19
2017-10-28T16:09:53.809Z,79.02
2017-10-28T16:12:22.127Z,78.94
2017-10-28T16:14:50.475Z,79.47
2017-10-28T16:17:18.893Z,79.58
2017-10-28T16:19:47.224Z,79.09
2017-10-28T16:22:15.548Z,79.78
2017-10-28T16:24:43.869Z,78.48
2017-10-28T16:27:12.186Z,78.68
2017-10-28T16:29:41.280Z,78.43
2017-10-28T16:32:10.385Z,77.15
2017-10-28T16:34:39.469Z,77.92
2017-10-28T16:37:08.566Z,77.18
2017-10-28T16:39:37.707Z,78.54
2017-10-28T16:42:06.080Z,78.32
2017-10-28T16:44:34.442Z,79.54
2017-10-28T16:47:02.809Z,78.41
2017-10-28T16:49:31.960Z,77.88
2017-10-28T16:52:00.316Z,77.97
2017-10-28T16:54:28.727Z,78.17
2017-10-28T16:56:57.117Z,77.77
2017-10-28T16:59:25.422Z,77.15
2017-10-28T17:01:53.772Z,76.92
2017-10-28T17:04:22.142Z,77.12
2017-10-28T17:06:50.493Z,76.00
2017-10-28T17:09:18.909Z,76.40
2017-10-28T17:11:48.003Z,76.38
2017-10-28T17:14:16.378Z,75.67
2017-10-28T17:16:44.701Z,76.48
2017-10-28T17:19:12.995Z,76.33
2017-10-28T17:21:41.362Z,76.29
2017-10-28T17:24:09.668Z,75.84
2017-10-28T17:26:38.015Z,75.75
2017-10-28T17:29:06.326Z,75.82
2017-10-28T17:31:34.645Z,75.49
2017-10-28T17:34:03.720Z,75.46
2017-10-28T17:36:32.035Z,75.18
2017-10-28T17:39:00.426Z,75.36
2017-10-28T17:41:28.768Z,75.63
2017-10-28T17:43:57.840Z,75.29
2017-10-28T17:46:26.205Z,75.45
2017-10-28T17:48:54.535Z,75.46
2017-10-28T17:51:22.865Z,75.37
2017-10-28T17:53:51.180Z,75.74
2017-10-28T17:56:20.376Z,76.09
2017-10-28T17:58:49.487Z,75.36
2017-10-28T18:01:17.832Z,75.48
2017-10-28T18:03:46.933Z,75.30
2017-10-28T18:06:15.235Z,75.24
2017-10-28T18:08:43.551Z,75.63
2017-10-28T18:11:11.872Z,76.75
2017-10-28T18:13:40.212Z,77.36
2017-10-28T18:16:08.536Z,77.75
2017-10-28T18:18:37.624Z,78.20
2017-10-28T18:21:06.787Z,78.80
2017-10-28T18:23:35.135Z,79.20
2017-10-28T18:26:03.444Z,79.95
2017-10-28T18:28:31.763Z,80.87
2017-10-28T18:31:00.848Z,81.49
2017-10-28T18:33:29.935Z,82.19
2017-10-28T18:35:58.269Z,82.42
2017-10-28T18:38:26.597Z,82.50
2017-10-28T18:40:55.720Z,83.60
2017-10-28T18:43:24.037Z,84.62
2017-10-28T18:45:52.353Z,84.76
2017-10-28T18:48:21.430Z,84.69
2017-10-28T18:50:49.826Z,85.01
2017-10-28T18:53:19.024Z,84.99
2017-10-28T18:55:48.334Z,84.92
2017-10-28T18:58:16.626Z,84.55
2017-10-28T19:00:44.921Z,84.18
2017-10-28T19:03:13.241Z,83.83
2017-10-28T19:05:41.573Z,83.70
2017-10-28T19:08:10.624Z,83.32
2017-10-28T19:10:38.950Z,83.43
2017-10-28T19:13:07.314Z,83.08
2017-10-28T19:15:35.616Z,83.61
2017-10-28T19:18:03.966Z,84.46
2017-10-28T19:20:32.316Z,84.78
2017-10-28T19:23:01.543Z,85.50
2017-10-28T19:25:29.852Z,85.44
2017-10-28T19:27:58.174Z,84.59
2017-10-28T19:30:26.505Z,84.44
2017-10-28T19:32:54.852Z,83.77
2017-10-28T19:35:23.196Z,83.51
2017-10-28T19:37:51.527Z,83.76
2017-10-28T19:40:19.887Z,83.37
2017-10-28T19:42:48.206Z,83.37
2017-10-28T19:45:17.314Z,82.95
2017-10-28T19:47:45.679Z,82.92
2017-10-28T19:50:14.018Z,83.07
2017-10-28T19:52:42.407Z,83.07
2017-10-28T19:55:10.771Z,83.19
2017-10-28T19:57:39.097Z,83.60
2017-10-28T20:00:07.434Z,83.70
2017-10-28T20:02:35.766Z,83.76
2017-10-28T20:05:04.126Z,83.96
2017-10-28T20:07:32.458Z,84.07
2017-10-28T20:10:00.785Z,84.40
2017-10-28T20:12:29.766Z,84.39
2017-10-28T20:14:58.101Z,84.28
2017-10-28T20:17:26.447Z,84.25
2017-10-28T20:19:54.770Z,84.13
2017-10-28T20:22:23.091Z,83.97
2017-10-28T20:24:51.487Z,83.92
2017-10-28T20:27:20.028Z,83.87
2017-10-28T20:29:48.369Z,83.91
2017-10-28T20:32:16.732Z,83.95
2017-10-28T20:34:45.840Z,83.83
2017-10-28T20:37:14.174Z,84.01
2017-10-28T20:39:42.534Z,83.77
2017-10-28T20:42:10.895Z,83.95
2017-10-28T20:44:39.253Z,83.84
2017-10-28T20:47:07.581Z,84.03
2017-10-28T20:49:35.904Z,83.88
2017-10-28T20:52:04.984Z,83.84
2017-10-28T20:54:33.303Z,83.73
2017-10-28T20:57:01.611Z,83.80
2017-10-28T20:59:29.931Z,84.32
2017-10-28T21:01:58.258Z,84.81
2017-10-28T21:04:26.603Z,84.62
2017-10-28T21:06:54.954Z,84.11
2017-10-28T21:09:24.043Z,83.66
2017-10-28T21:11:53.138Z,83.53
2017-10-28T21:14:21.460Z,83.02
2017-10-28T21:16:49.764Z,82.95
2017-10-28T21:19:18.070Z,83.49
2017-10-28T21:21:46.412Z,83.48
2017-10-28T21:24:14.758Z,83.33
2017-10-28T21:26:43.113Z,82.81
2017-10-28T21:29:11.415Z,82.71
2017-10-28T21:31:39.784Z,83.02
2017-10-28T21:34:08.095Z,83.20
2017-10-28T21:36:36.438Z,83.36
2017-10-28T21:39:04.738Z,83.33
2017-10-28T21:41:33.101Z,84.07
2017-10-28T21:44:01.398Z,84.67
2017-10-28T21:46:29.717Z,85.28
2017-10-28T21:48:58.014Z,85.24
2017-10-28T21:51:27.088Z,85.01
2017-10-28T21:53:55.402Z,85.32
2017-10-28T21:56:23.714Z,85.00
2017-10-28T21:58:52.024Z,85.15
2017-10-28T22:01:20.341Z,85.20
2017-10-28T22:03:48.653Z,85.47
2017-10-28T22:06:17.021Z,85.36
2017-10-28T22:08:45.336Z,85.65
2017-10-28T22:11:13.653Z,85.69
2017-10-28T22:13:41.950Z,85.89
2017-10-28T22:16:10.310Z,85.60
2017-10-28T22:18:38.650Z,85.18
2017-10-28T22:21:06.974Z,85.07
2017-10-28T22:23:35.300Z,84.70
2017-10-28T22:26:03.612Z,84.25
2017-10-28T22:28:31.922Z,83.93
2017-10-28T22:31:00.286Z,83.48
2017-10-28T22:33:28.594Z,83.54
2017-10-28T22:35:56.952Z,83.63
2017-10-28T22:38:25.287Z,84.12
2017-10-28T22:40:54.366Z,84.48
2017-10-28T22:43:22.760Z,85.18
2017-10-28T22:45:51.059Z,86.23
2017-10-28T22:48:19.410Z,86.55
2017-10-28T22:50:47.730Z,88.17
2017-10-28T22:53:16.078Z,88.88
2017-10-28T22:55:44.385Z,88.81
2017-10-28T22:58:12.711Z,87.91
2017-10-28T23:00:41.778Z,87.03
2017-10-28T23:03:10.118Z,86.44
2017-10-28T23:05:38.608Z,86.44
2017-10-28T23:08:06.975Z,86.41
2017-10-28T23:10:35.326Z,85.86
2017-10-28T23:13:03.656Z,84.89
2017-10-28T23:15:31.982Z,84.74
2017-10-28T23:18:00.337Z,84.76
2017-10-28T23:20:28.722Z,84.89
2017-10-28T23:22:57.101Z,85.36
2017-10-28T23:25:25.455Z,86.03
2017-10-28T23:27:53.820Z,86.53
2017-10-28T23:30:22.134Z,87.07
2017-10-28T23:32:50.590Z,87.62
2017-10-28T23:35:18.956Z,87.94
2017-10-28T23:37:47.289Z,88.26
2017-10-28T23:40:16.433Z,88.09
2017-10-28T23:42:44.767Z,87.93
2017-10-28T23:45:13.073Z,87.94
2017-10-28T23:47:41.467Z,87.79
2017-10-28T23:50:09.779Z,87.85
2017-10-28T23:52:38.181Z,88.26
2017-10-28T23:55:06.570Z,88.50
2017-10-28T23:57:34.987Z,89.33
